Time;durP1;ratioP1;P1;durP2;ratioP2;P2;SDS_P1;SDS_P2;PMS_P1;PMS_P2;Temp;Humidity;BMP_temperature;BMP_pressure;BME280_temperature;BME280_humidity;BME280_pressure;Samples;Min_cycle;Max_cycle;Signal;HPM_P1;HPM_P2
2022/01/20 00:01:44;;;;;;;9.03;5.77;;;4.60;99.90;;;;;;5114210;28;20228;-55
2022/01/20 00:04:23;;;;;;;16.97;6.07;;;4.50;99.90;;;;;;5134249;27;20204;-55
2022/01/20 00:20:27;;;;;;;14.13;6.30;;;4.50;99.90;;;;;;5129924;27;20248;-55
2022/01/20 00:26:30;;;;;;;8.17;5.20;;;4.40;99.90;;;;;;5113076;28;20258;-55
2022/01/20 00:29:01;;;;;;;12.27;6.20;;;4.30;99.90;;;;;;5112794;28;20275;-55
2022/01/20 00:31:46;;;;;;;12.70;6.90;;;4.30;99.90;;;;;;5118993;27;20275;-55
2022/01/20 00:34:19;;;;;;;14.73;6.63;;;4.20;99.90;;;;;;5128278;27;20582;-61
2022/01/20 00:39:33;;;;;;;9.97;6.33;;;4.30;99.90;;;;;;5112969;28;20233;-55
2022/01/20 00:42:02;;;;;;;10.60;6.83;;;4.10;99.90;;;;;;5112798;28;20732;-56
2022/01/20 00:44:30;;;;;;;13.37;7.23;;;4.10;99.90;;;;;;5117165;27;20205;-55
2022/01/20 00:46:58;;;;;;;12.53;6.87;;;4.00;99.90;;;;;;5115878;27;20322;-55
2022/01/20 00:49:26;;;;;;;11.73;6.60;;;3.90;99.90;;;;;;5112479;28;20200;-55
2022/01/20 00:51:56;;;;;;;15.73;7.10;;;3.70;99.90;;;;;;5112713;28;20210;-55
2022/01/20 00:54:24;;;;;;;12.37;7.53;;;3.70;99.90;;;;;;5112660;28;20208;-55
2022/01/20 00:56:52;;;;;;;13.23;6.90;;;3.70;99.90;;;;;;5112921;28;20233;-55
2022/01/20 00:59:20;;;;;;;14.27;7.10;;;3.60;99.90;;;;;;5108830;27;20708;-55
2022/01/20 01:01:48;;;;;;;14.63;7.40;;;3.60;99.90;;;;;;5092409;28;20208;-55
2022/01/20 01:04:17;;;;;;;13.07;7.07;;;3.50;99.90;;;;;;5092253;28;20210;-55
2022/01/20 01:07:07;;;;;;;13.23;6.60;;;3.40;99.90;;;;;;5092474;28;20264;-55
2022/01/20 01:09:39;;;;;;;13.67;5.97;;;3.40;99.90;;;;;;5094963;28;20231;-55
2022/01/20 01:12:11;;;;;;;12.00;5.50;;;3.30;99.90;;;;;;5112807;28;20231;-55
2022/01/20 01:14:44;;;;;;;11.73;6.17;;;3.30;99.90;;;;;;5092244;28;20246;-55
2022/01/20 01:20:11;;;;;;;23.00;6.27;;;3.20;99.90;;;;;;5091924;28;20229;-54
2022/01/20 01:22:39;;;;;;;15.07;6.00;;;3.20;99.90;;;;;;5091923;28;20261;-54
2022/01/20 01:25:10;;;;;;;11.23;5.33;;;3.10;99.90;;;;;;5091963;28;20562;-55
2022/01/20 01:27:40;;;;;;;9.77;5.80;;;3.10;99.90;;;;;;5116523;27;20652;-55
2022/01/20 01:30:21;;;;;;;16.93;5.37;;;3.00;99.90;;;;;;5118376;27;20231;-55
2022/01/20 01:32:52;;;;;;;13.40;5.67;;;2.90;99.90;;;;;;5111242;28;20236;-55
2022/01/20 01:35:23;;;;;;;12.50;5.73;;;2.90;99.90;;;;;;5112556;28;20192;-54
2022/01/20 01:40:42;;;;;;;15.00;5.80;;;2.80;99.90;;;;;;5115212;27;20274;-55
2022/01/20 01:43:19;;;;;;;14.97;5.73;;;2.80;99.90;;;;;;5114810;27;20200;-55
2022/01/20 01:45:48;;;;;;;9.77;5.80;;;2.80;99.90;;;;;;5111767;28;20842;-55
2022/01/20 01:48:16;;;;;;;12.97;6.03;;;2.70;99.90;;;;;;5111790;28;20233;-55
2022/01/20 01:50:45;;;;;;;13.33;7.27;;;2.70;99.90;;;;;;5111646;28;20228;-55
2022/01/20 01:53:14;;;;;;;16.27;8.83;;;2.70;99.90;;;;;;5111784;28;20204;-55
2022/01/20 01:55:44;;;;;;;19.03;8.30;;;2.70;99.90;;;;;;5123420;27;20202;-55
2022/01/20 01:58:12;;;;;;;17.90;8.20;;;2.70;99.90;;;;;;5132354;27;20223;-55
2022/01/20 02:00:42;;;;;;;18.70;9.00;;;2.60;99.90;;;;;;5111626;27;20229;-55
2022/01/20 02:03:13;;;;;;;15.63;9.13;;;2.60;99.90;;;;;;5111995;28;20294;-55
2022/01/20 02:05:56;;;;;;;16.03;7.27;;;2.60;99.90;;;;;;5111790;28;20227;-54
2022/01/20 02:08:32;;;;;;;16.20;7.13;;;2.60;99.90;;;;;;5112030;28;20204;-55
2022/01/20 02:19:32;;;;;;;13.70;7.53;;;2.80;99.90;;;;;;5100962;28;20636;-55
2022/01/20 02:22:02;;;;;;;18.30;7.37;;;2.90;99.90;;;;;;5111155;28;20206;-54
2022/01/20 02:24:32;;;;;;;17.03;7.27;;;3.00;99.90;;;;;;5111217;28;20215;-54
2022/01/20 02:27:00;;;;;;;16.03;5.83;;;3.10;99.90;;;;;;5111156;28;20204;-55
2022/01/20 02:29:28;;;;;;;16.07;7.13;;;3.10;99.90;;;;;;5111055;28;20268;-54
2022/01/20 02:32:00;;;;;;;18.80;7.40;;;3.10;99.90;;;;;;5111229;28;20232;-55
2022/01/20 02:34:30;;;;;;;17.57;5.57;;;3.20;99.90;;;;;;5111332;28;20229;-54
2022/01/20 02:37:05;;;;;;;14.33;6.43;;;3.20;99.90;;;;;;5095422;28;20216;-55
2022/01/20 02:39:59;;;;;;;20.03;6.67;;;3.30;99.90;;;;;;5109931;28;20208;-54
2022/01/20 02:45:14;;;;;;;16.53;5.57;;;3.30;99.90;;;;;;5115824;28;20201;-55
2022/01/20 02:47:42;;;;;;;15.53;5.70;;;3.30;99.90;;;;;;5116122;28;20206;-55
2022/01/20 02:50:10;;;;;;;15.80;5.10;;;3.30;99.90;;;;;;5118206;27;20254;-54
2022/01/20 02:52:39;;;;;;;17.13;4.83;;;3.30;99.90;;;;;;5115699;28;20203;-55
2022/01/20 02:55:08;;;;;;;21.20;4.83;;;3.30;99.90;;;;;;5115342;28;20224;-55
2022/01/20 02:57:36;;;;;;;17.60;4.77;;;3.30;99.90;;;;;;5115598;28;20215;-54
2022/01/20 03:00:06;;;;;;;19.03;5.23;;;3.40;99.90;;;;;;5101713;28;20772;-55
2022/01/20 03:02:34;;;;;;;20.77;4.77;;;3.40;99.90;;;;;;5095494;28;20266;-56
2022/01/20 03:05:03;;;;;;;20.10;4.57;;;3.50;99.90;;;;;;5126029;27;20249;-55
2022/01/20 03:07:31;;;;;;;17.97;5.67;;;3.50;99.90;;;;;;5135674;27;20213;-54
2022/01/20 03:10:00;;;;;;;20.23;5.00;;;3.50;99.90;;;;;;5128082;27;20275;-55
2022/01/20 03:12:29;;;;;;;19.77;5.40;;;3.40;99.90;;;;;;5114967;28;20203;-54
2022/01/20 03:15:01;;;;;;;22.17;5.30;;;3.40;99.90;;;;;;5115208;28;20589;-55
2022/01/20 03:17:30;;;;;;;21.63;5.60;;;3.50;99.90;;;;;;5116245;27;20221;-55
2022/01/20 03:19:58;;;;;;;23.53;5.17;;;3.50;99.90;;;;;;5098001;27;20297;-54
2022/01/20 03:22:26;;;;;;;22.10;5.10;;;3.50;99.90;;;;;;5095214;28;20294;-54
2022/01/20 03:24:55;;;;;;;22.37;6.13;;;3.60;99.90;;;;;;5115121;28;20230;-54
2022/01/20 03:27:25;;;;;;;26.77;6.00;;;3.60;99.90;;;;;;5115349;28;20196;-55
2022/01/20 03:29:53;;;;;;;23.73;6.20;;;3.60;99.90;;;;;;5114684;28;20224;-55
2022/01/20 03:32:21;;;;;;;22.20;6.07;;;3.60;99.90;;;;;;5123310;27;20202;-55
2022/01/20 03:34:49;;;;;;;23.20;5.50;;;3.60;99.90;;;;;;5125229;27;20211;-55
2022/01/20 03:37:17;;;;;;;24.83;5.70;;;3.60;99.90;;;;;;5115023;28;20258;-55
2022/01/20 03:39:45;;;;;;;26.73;6.07;;;3.60;99.90;;;;;;5114482;28;20245;-54
2022/01/20 03:42:14;;;;;;;19.20;5.57;;;3.60;99.90;;;;;;5115040;28;20207;-54
2022/01/20 03:44:43;;;;;;;23.90;5.90;;;3.60;99.90;;;;;;5114176;28;20207;-55
2022/01/20 03:47:11;;;;;;;27.63;5.60;;;3.70;99.90;;;;;;5130556;27;20252;-54
2022/01/20 03:49:52;;;;;;;22.93;5.67;;;3.70;99.90;;;;;;5122367;27;20784;-55
2022/01/20 03:52:20;;;;;;;21.07;5.73;;;3.70;99.90;;;;;;5114118;28;20214;-55
2022/01/20 03:54:48;;;;;;;21.87;5.43;;;3.70;99.90;;;;;;5113423;28;20570;-55
2022/01/20 03:57:17;;;;;;;20.83;5.77;;;3.70;99.90;;;;;;5114321;28;20372;-55
2022/01/20 03:59:47;;;;;;;21.03;5.37;;;3.70;99.90;;;;;;5113684;28;20223;-55
2022/01/20 04:02:16;;;;;;;25.10;5.90;;;3.80;99.90;;;;;;5114388;28;20186;-56
2022/01/20 04:04:44;;;;;;;22.07;5.37;;;3.80;99.90;;;;;;5114105;28;20291;-55
2022/01/20 04:07:12;;;;;;;26.60;6.27;;;3.70;99.90;;;;;;5114123;28;20202;-55
2022/01/20 04:09:40;;;;;;;21.03;6.17;;;3.70;99.90;;;;;;5113722;28;20301;-56
2022/01/20 04:12:09;;;;;;;27.77;6.50;;;3.70;99.90;;;;;;5113977;28;20207;-56
2022/01/20 04:14:45;;;;;;;27.93;5.97;;;3.60;99.90;;;;;;5113461;28;20625;-55
2022/01/20 04:17:18;;;;;;;23.77;6.07;;;3.60;99.90;;;;;;5121479;27;20203;-56
2022/01/20 04:19:47;;;;;;;20.00;5.80;;;3.60;99.90;;;;;;5113706;27;20216;-55
2022/01/20 04:22:15;;;;;;;24.90;5.93;;;3.60;99.90;;;;;;5113311;28;20223;-55
2022/01/20 04:24:48;;;;;;;19.00;6.23;;;3.60;99.90;;;;;;5113646;28;20287;-55
2022/01/20 04:27:16;;;;;;;26.50;5.63;;;3.60;99.90;;;;;;5113329;28;20200;-55
2022/01/20 04:29:44;;;;;;;22.07;6.47;;;3.60;99.90;;;;;;5113438;28;20308;-55
2022/01/20 04:32:15;;;;;;;22.17;5.93;;;3.60;99.90;;;;;;5093258;28;20293;-55
2022/01/20 04:34:44;;;;;;;21.33;6.80;;;3.60;99.90;;;;;;5092804;28;20245;-56
2022/01/20 04:37:14;;;;;;;19.47;6.43;;;3.60;99.90;;;;;;5092846;28;20295;-55
2022/01/20 04:39:49;;;;;;;22.47;6.30;;;3.60;99.90;;;;;;5109088;28;20334;-55
2022/01/20 04:42:19;;;;;;;21.73;6.17;;;3.60;99.90;;;;;;5113691;28;20253;-56
2022/01/20 04:44:52;;;;;;;13.93;5.67;;;3.70;99.90;;;;;;5113302;28;20585;-55
2022/01/20 04:47:32;;;;;;;22.17;5.87;;;3.80;99.90;;;;;;5130051;27;20203;-55
2022/01/20 04:58:17;;;;;;;15.73;6.33;;;3.90;99.90;;;;;;5114266;28;20205;-54
2022/01/20 05:00:45;;;;;;;18.37;4.57;;;3.90;99.90;;;;;;5093419;28;20221;-56
2022/01/20 05:03:14;;;;;;;10.20;3.30;;;3.90;99.90;;;;;;5093789;28;20206;-55
2022/01/20 05:05:43;;;;;;;11.33;3.13;;;3.90;99.90;;;;;;5104649;28;20672;-55
2022/01/20 05:08:11;;;;;;;8.80;3.03;;;3.80;99.90;;;;;;5111819;28;20574;-55
2022/01/20 05:10:39;;;;;;;6.07;2.90;;;3.80;99.90;;;;;;5118011;27;20646;-55
2022/01/20 05:13:12;;;;;;;13.00;2.93;;;3.80;99.90;;;;;;5092385;28;20249;-55
2022/01/20 05:15:40;;;;;;;11.00;3.00;;;3.80;99.90;;;;;;5099065;28;20701;-55
2022/01/20 05:18:09;;;;;;;10.63;3.30;;;3.80;99.90;;;;;;5109567;27;20249;-55
2022/01/20 05:20:39;;;;;;;8.77;3.63;;;3.80;99.90;;;;;;5091765;28;20234;-55
2022/01/20 05:23:07;;;;;;;13.60;3.67;;;3.90;99.90;;;;;;5091645;28;20212;-55
2022/01/20 05:25:35;;;;;;;16.33;3.87;;;3.90;99.90;;;;;;5092496;28;20204;-56
2022/01/20 05:28:03;;;;;;;10.63;3.40;;;3.90;99.90;;;;;;5112139;28;20209;-56
2022/01/20 05:30:31;;;;;;;12.37;3.83;;;3.90;99.90;;;;;;5123083;27;20588;-55
2022/01/20 05:33:00;;;;;;;9.07;3.10;;;3.90;99.90;;;;;;5132685;27;20206;-55
2022/01/20 05:35:28;;;;;;;12.83;3.93;;;3.90;99.90;;;;;;5126215;27;20201;-56
2022/01/20 05:37:58;;;;;;;12.47;6.17;;;3.90;99.90;;;;;;5111999;28;20261;-55
2022/01/20 05:40:27;;;;;;;16.90;4.40;;;3.90;99.90;;;;;;5112370;28;20226;-55
2022/01/20 05:42:55;;;;;;;9.83;4.17;;;3.90;99.90;;;;;;5112095;28;20211;-55
2022/01/20 05:45:24;;;;;;;26.33;13.80;;;3.90;99.90;;;;;;5111015;28;20199;-56
2022/01/20 05:48:07;;;;;;;27.73;19.57;;;3.90;99.90;;;;;;5091658;28;20212;-55
2022/01/20 05:50:35;;;;;;;16.00;7.80;;;3.90;99.90;;;;;;5091166;28;20258;-55
2022/01/20 05:53:05;;;;;;;12.63;5.20;;;3.90;99.90;;;;;;5106958;27;20200;-55
2022/01/20 05:55:34;;;;;;;14.83;4.27;;;3.90;99.90;;;;;;5132181;27;20212;-55
2022/01/20 05:58:02;;;;;;;6.73;3.10;;;4.00;99.90;;;;;;5132489;27;20206;-55
2022/01/20 06:00:30;;;;;;;10.57;3.00;;;3.90;99.90;;;;;;5115089;27;20221;-56
2022/01/20 06:05:44;;;;;;;7.87;2.77;;;3.70;99.90;;;;;;5111319;28;20261;-54
2022/01/20 06:08:15;;;;;;;8.20;3.47;;;3.70;99.90;;;;;;5111649;28;20210;-55
2022/01/20 06:10:44;;;;;;;10.30;3.40;;;3.60;99.90;;;;;;5123758;27;20224;-55
2022/01/20 06:13:12;;;;;;;6.03;3.63;;;3.70;99.90;;;;;;5114242;28;20216;-53
2022/01/20 06:15:41;;;;;;;8.77;2.90;;;3.60;99.90;;;;;;5119663;27;20207;-56
2022/01/20 06:18:10;;;;;;;9.43;3.80;;;3.70;99.90;;;;;;5112320;28;20618;-56
2022/01/20 06:20:39;;;;;;;11.20;3.20;;;3.60;99.90;;;;;;5111748;28;20221;-55
2022/01/20 06:23:09;;;;;;;7.40;3.33;;;3.60;99.90;;;;;;5111104;28;20768;-55
2022/01/20 06:25:38;;;;;;;12.33;3.40;;;3.60;99.90;;;;;;5111401;28;20209;-56
2022/01/20 06:28:06;;;;;;;9.47;3.23;;;3.60;99.90;;;;;;5111107;28;20205;-54
2022/01/20 06:30:35;;;;;;;7.63;3.60;;;3.60;99.90;;;;;;5126558;27;20593;-53
2022/01/20 06:33:04;;;;;;;7.00;3.70;;;3.70;99.90;;;;;;5132060;28;20625;-54
2022/01/20 06:35:33;;;;;;;10.77;3.20;;;3.70;99.90;;;;;;5124780;28;20204;-54
2022/01/20 06:38:02;;;;;;;9.83;3.40;;;3.80;99.90;;;;;;5111533;28;20622;-54
2022/01/20 06:40:31;;;;;;;9.67;3.53;;;3.80;99.90;;;;;;5111576;28;20255;-55
2022/01/20 06:43:02;;;;;;;9.40;3.70;;;3.70;99.90;;;;;;5113161;28;20256;-55
2022/01/20 06:45:31;;;;;;;14.30;3.77;;;3.70;99.90;;;;;;5132068;28;20249;-55
2022/01/20 06:47:59;;;;;;;11.37;4.17;;;3.70;99.90;;;;;;5131605;28;20242;-55
2022/01/20 06:50:27;;;;;;;9.17;3.37;;;3.60;99.90;;;;;;5131959;28;20271;-57
2022/01/20 06:52:55;;;;;;;8.27;3.07;;;3.70;99.90;;;;;;5115199;28;20225;-55
2022/01/20 06:55:24;;;;;;;8.10;3.10;;;3.60;99.90;;;;;;5110594;28;20273;-55
2022/01/20 06:57:52;;;;;;;6.87;2.43;;;3.60;99.90;;;;;;5114722;28;20208;-54
2022/01/20 07:00:25;;;;;;;3.70;1.87;;;3.50;99.90;;;;;;5093975;28;20720;-55
2022/01/20 07:02:54;;;;;;;2.77;1.90;;;3.60;99.90;;;;;;5091774;28;20210;-54
2022/01/20 07:05:24;;;;;;;4.30;2.80;;;3.60;99.90;;;;;;5111205;28;20209;-54
2022/01/20 07:07:52;;;;;;;6.53;3.07;;;3.50;99.90;;;;;;5110796;28;20623;-53
2022/01/20 07:10:22;;;;;;;10.33;3.53;;;3.20;99.90;;;;;;5119993;28;20218;-56
2022/01/20 07:12:51;;;;;;;6.27;2.93;;;3.20;99.90;;;;;;5131721;28;20552;-55
2022/01/20 07:15:19;;;;;;;12.23;2.97;;;3.10;99.90;;;;;;5131178;28;20204;-55
2022/01/20 07:17:49;;;;;;;9.67;3.03;;;3.00;99.90;;;;;;5114849;28;20263;-55
2022/01/20 07:20:18;;;;;;;6.17;2.37;;;3.00;99.90;;;;;;5110596;28;20311;-55
2022/01/20 07:22:48;;;;;;;7.73;2.50;;;2.90;99.90;;;;;;5110663;28;20837;-55
2022/01/20 07:25:17;;;;;;;10.27;2.77;;;2.90;99.90;;;;;;5113519;28;20278;-54
2022/01/20 07:27:45;;;;;;;13.30;2.90;;;2.90;99.90;;;;;;5112771;28;20201;-55
2022/01/20 07:30:30;;;;;;;12.90;2.97;;;2.90;99.90;;;;;;5122563;27;20703;-55
2022/01/20 07:33:03;;;;;;;8.00;3.43;;;2.80;99.90;;;;;;5135401;27;20257;-55
2022/01/20 07:35:34;;;;;;;15.03;3.27;;;2.80;99.90;;;;;;5127752;27;20296;-55
2022/01/20 07:38:02;;;;;;;12.47;3.33;;;2.80;99.90;;;;;;5114417;28;20207;-55
2022/01/20 07:40:32;;;;;;;10.10;2.77;;;2.90;99.90;;;;;;5126562;27;20595;-56
2022/01/20 07:43:00;;;;;;;14.43;3.40;;;2.80;99.90;;;;;;5124500;27;20235;-54
2022/01/20 07:45:29;;;;;;;9.53;3.20;;;2.90;99.90;;;;;;5096177;28;20261;-54
2022/01/20 07:47:59;;;;;;;17.23;3.93;;;2.80;99.90;;;;;;5093517;28;20572;-54
2022/01/20 07:50:27;;;;;;;10.07;2.90;;;2.90;99.90;;;;;;5093526;28;20220;-54
2022/01/20 07:52:56;;;;;;;15.00;3.53;;;2.90;99.90;;;;;;5106776;27;20200;-55
2022/01/20 07:55:24;;;;;;;19.37;3.60;;;2.80;99.90;;;;;;5134508;27;20207;-55
2022/01/20 07:57:52;;;;;;;14.50;2.80;;;2.90;99.90;;;;;;5134261;27;20207;-55
2022/01/20 08:00:21;;;;;;;15.13;3.73;;;2.80;99.90;;;;;;5118385;27;20607;-55
2022/01/20 08:02:49;;;;;;;11.17;3.17;;;2.90;99.90;;;;;;5114138;28;20211;-54
2022/01/20 08:05:19;;;;;;;15.97;4.17;;;2.90;99.90;;;;;;5105035;28;20288;-55
2022/01/20 08:07:48;;;;;;;12.87;3.20;;;2.90;99.90;;;;;;5104477;27;20206;-55
2022/01/20 08:10:16;;;;;;;14.77;3.30;;;2.90;99.90;;;;;;5133672;27;20221;-57
2022/01/20 08:12:44;;;;;;;15.90;3.37;;;3.00;99.90;;;;;;5129222;27;20211;-55
2022/01/20 08:15:15;;;;;;;15.67;3.23;;;3.00;99.90;;;;;;5113298;28;20204;-55
2022/01/20 08:17:44;;;;;;;15.93;3.67;;;3.00;99.90;;;;;;5112736;28;20309;-55
2022/01/20 08:20:13;;;;;;;16.70;3.63;;;3.00;99.90;;;;;;5112937;28;20257;-55
2022/01/20 08:22:43;;;;;;;15.00;3.70;;;3.10;99.90;;;;;;5113175;28;20202;-56
2022/01/20 08:25:13;;;;;;;15.70;7.20;;;3.10;99.90;;;;;;5113654;28;20649;-55
2022/01/20 08:27:43;;;;;;;13.43;3.30;;;3.00;99.90;;;;;;5113443;28;20617;-55
2022/01/20 08:30:14;;;;;;;13.13;3.90;;;3.10;99.90;;;;;;5121135;27;20222;-55
2022/01/20 08:32:43;;;;;;;13.10;3.27;;;3.00;99.90;;;;;;5133786;27;20222;-55
2022/01/20 08:35:13;;;;;;;12.73;4.10;;;3.00;99.90;;;;;;5129678;27;20203;-56
2022/01/20 08:37:45;;;;;;;14.47;3.87;;;3.10;99.90;;;;;;5112964;28;20208;-55
2022/01/20 08:40:15;;;;;;;14.83;3.77;;;3.10;99.90;;;;;;5113079;28;20288;-54
2022/01/20 08:42:46;;;;;;;14.27;4.10;;;3.10;99.90;;;;;;5112613;28;20566;-55
2022/01/20 08:45:16;;;;;;;14.00;3.83;;;3.10;99.90;;;;;;5113062;28;20214;-55
2022/01/20 08:47:45;;;;;;;13.50;3.63;;;3.00;99.90;;;;;;5112974;28;20257;-55
2022/01/20 08:50:14;;;;;;;16.27;3.87;;;3.10;99.90;;;;;;5112745;28;20217;-55
2022/01/20 08:52:47;;;;;;;15.23;4.23;;;3.00;99.90;;;;;;5116907;27;20196;-55
2022/01/20 08:55:16;;;;;;;11.63;3.20;;;3.10;99.90;;;;;;5132985;27;20212;-55
2022/01/20 08:57:44;;;;;;;15.68;4.10;;;3.10;99.90;;;;;;5092421;28;20497;-53
2022/01/20 09:00:16;;;;;;;16.60;3.50;;;3.20;99.90;;;;;;5095466;28;20229;-55
2022/01/20 09:02:44;;;;;;;16.80;3.70;;;3.20;99.90;;;;;;5112779;28;20616;-54
2022/01/20 09:05:12;;;;;;;15.67;3.10;;;3.20;99.90;;;;;;5112591;28;20212;-55
2022/01/20 09:07:41;;;;;;;21.73;4.57;;;3.20;99.90;;;;;;5112346;28;20235;-55
2022/01/20 09:10:18;;;;;;;17.37;3.83;;;3.10;99.90;;;;;;5119912;27;20219;-55
2022/01/20 09:15:32;;;;;;;13.53;3.77;;;3.00;99.90;;;;;;5092042;28;20208;-55
2022/01/20 09:18:03;;;;;;;14.20;3.67;;;3.00;99.90;;;;;;5101876;28;20200;-55
2022/01/20 09:20:33;;;;;;;15.13;3.33;;;3.10;99.90;;;;;;5091851;28;20231;-55
2022/01/20 09:23:02;;;;;;;11.43;2.93;;;3.20;99.90;;;;;;5122210;27;20646;-55
2022/01/20 09:25:32;;;;;;;20.27;4.47;;;3.30;99.90;;;;;;5132883;27;20207;-55
2022/01/20 09:28:00;;;;;;;26.10;5.30;;;3.30;99.90;;;;;;5133029;27;20301;-55
2022/01/20 09:30:30;;;;;;;10.93;3.10;;;3.30;99.90;;;;;;5125861;27;20214;-55
2022/01/20 09:33:09;;;;;;;12.30;3.53;;;3.40;99.90;;;;;;5133137;27;20203;-56
2022/01/20 09:35:38;;;;;;;10.93;2.80;;;3.40;99.90;;;;;;5125161;27;20230;-55
2022/01/20 09:38:10;;;;;;;12.00;3.07;;;3.40;99.90;;;;;;5112132;28;20209;-55
2022/01/20 09:40:43;;;;;;;16.50;3.93;;;3.30;99.90;;;;;;5111921;28;20727;-55
2022/01/20 09:43:14;;;;;;;10.57;4.03;;;3.30;99.90;;;;;;5111970;28;20687;-55
2022/01/20 09:45:44;;;;;;;10.50;4.10;;;3.20;99.90;;;;;;5112018;28;20591;-54
2022/01/20 09:48:12;;;;;;;14.87;5.63;;;3.20;99.90;;;;;;5112211;28;20204;-55
2022/01/20 09:50:40;;;;;;;33.67;16.60;;;3.30;99.90;;;;;;5103297;28;20273;-55
2022/01/20 09:53:08;;;;;;;11.17;3.60;;;3.40;99.90;;;;;;5119683;27;20250;-55
2022/01/20 09:55:37;;;;;;;20.23;6.93;;;3.40;99.90;;;;;;5119020;27;20206;-55
2022/01/20 09:58:08;;;;;;;16.03;3.93;;;3.50;99.90;;;;;;5095919;28;20253;-55
2022/01/20 10:00:37;;;;;;;10.83;3.57;;;3.50;99.90;;;;;;5090872;28;20228;-55
2022/01/20 10:03:09;;;;;;;43.37;21.07;;;3.50;99.90;;;;;;5091025;28;20216;-55
2022/01/20 10:05:40;;;;;;;39.60;21.47;;;3.50;99.90;;;;;;5099752;28;20227;-55
2022/01/20 10:08:12;;;;;;;19.53;8.23;;;3.60;99.90;;;;;;5105003;28;20240;-55
2022/01/20 10:10:46;;;;;;;21.90;10.97;;;3.50;99.90;;;;;;5114950;27;20223;-55
2022/01/20 10:13:20;;;;;;;21.43;13.17;;;3.50;99.90;;;;;;5132001;27;20206;-55
2022/01/20 10:15:59;;;;;;;9.10;2.47;;;3.50;99.90;;;;;;5131597;27;20873;-55
2022/01/20 10:18:29;;;;;;;12.33;4.17;;;3.40;99.90;;;;;;5105111;28;20198;-56
2022/01/20 10:21:00;;;;;;;10.30;4.50;;;3.40;99.90;;;;;;5090913;28;20286;-56
2022/01/20 10:23:30;;;;;;;15.00;6.77;;;3.30;99.90;;;;;;5129317;27;20311;-56
2022/01/20 10:26:06;;;;;;;10.87;3.40;;;3.40;99.90;;;;;;5131528;27;20203;-56
2022/01/20 10:28:57;;;;;;;57.50;27.20;;;3.60;99.90;;;;;;5131978;27;20199;-53
2022/01/20 10:31:37;;;;;;;12.13;5.00;;;3.80;99.90;;;;;;5131289;27;20285;-53
2022/01/20 10:34:07;;;;;;;24.57;13.40;;;3.70;99.90;;;;;;5131803;28;20686;-54
2022/01/20 10:36:40;;;;;;;13.13;5.13;;;3.70;99.90;;;;;;5115073;28;20202;-55
2022/01/20 10:39:08;;;;;;;14.47;4.63;;;3.60;99.90;;;;;;5111304;28;20266;-53
2022/01/20 10:41:39;;;;;;;30.73;20.33;;;3.60;99.90;;;;;;5111152;28;20268;-55
2022/01/20 10:44:13;;;;;;;13.93;6.27;;;3.70;99.90;;;;;;5111300;28;20209;-55
2022/01/20 10:46:47;;;;;;;14.67;4.50;;;3.80;99.90;;;;;;5111425;28;20590;-56
2022/01/20 10:49:16;;;;;;;14.00;4.77;;;3.80;99.90;;;;;;5098971;28;20212;-55
2022/01/20 10:51:44;;;;;;;11.40;4.50;;;3.90;99.90;;;;;;5090272;28;20226;-56
2022/01/20 10:54:14;;;;;;;10.07;3.07;;;3.90;99.90;;;;;;5110130;28;20241;-56
2022/01/20 10:56:50;;;;;;;13.20;3.43;;;3.90;99.90;;;;;;5110994;28;20206;-56
2022/01/20 10:59:21;;;;;;;14.23;3.40;;;3.90;99.90;;;;;;5104173;28;20204;-54
2022/01/20 11:01:59;;;;;;;11.57;3.30;;;3.80;99.90;;;;;;5095278;28;20232;-54
2022/01/20 11:04:28;;;;;;;12.80;3.60;;;3.80;99.90;;;;;;5107755;28;20202;-56
2022/01/20 11:06:59;;;;;;;12.83;3.50;;;3.70;99.90;;;;;;5115344;28;20204;-54
2022/01/20 11:09:28;;;;;;;12.27;3.20;;;3.60;99.90;;;;;;5112300;28;20207;-56
2022/01/20 11:11:57;;;;;;;12.97;3.70;;;3.50;99.90;;;;;;5123564;27;20199;-56
2022/01/20 11:14:27;;;;;;;10.23;2.80;;;3.60;99.90;;;;;;5094904;28;20276;-55
2022/01/20 11:16:55;;;;;;;8.70;2.70;;;3.50;99.90;;;;;;5099614;28;20192;-55
2022/01/20 11:19:23;;;;;;;10.70;3.10;;;3.50;99.90;;;;;;5098882;28;20204;-55
2022/01/20 11:21:53;;;;;;;9.90;3.07;;;3.60;99.90;;;;;;5126996;27;20223;-56
2022/01/20 11:24:24;;;;;;;16.83;4.50;;;3.70;99.90;;;;;;5134629;27;20300;-56
2022/01/20 11:26:54;;;;;;;13.77;5.50;;;3.60;99.90;;;;;;5134536;27;20667;-52
2022/01/20 11:29:23;;;;;;;20.50;6.73;;;3.60;99.90;;;;;;5111241;27;20195;-54
2022/01/20 11:31:53;;;;;;;18.60;6.00;;;3.70;99.90;;;;;;5093476;28;20208;-54
2022/01/20 11:34:41;;;;;;;15.13;5.10;;;3.70;99.90;;;;;;5093878;28;20211;-55
2022/01/20 11:37:10;;;;;;;89.50;41.67;;;3.80;99.90;;;;;;5114259;28;20208;-55
2022/01/20 11:39:48;;;;;;;15.07;5.10;;;3.80;99.90;;;;;;5114169;28;20243;-55
2022/01/20 11:42:21;;;;;;;13.23;5.43;;;3.90;99.90;;;;;;5113654;28;20215;-55
2022/01/20 11:44:49;;;;;;;14.83;4.43;;;3.90;99.90;;;;;;5124047;27;20266;-55
2022/01/20 11:47:30;;;;;;;9.33;2.87;;;3.90;99.90;;;;;;5123442;27;20219;-56
2022/01/20 11:49:58;;;;;;;12.57;5.97;;;3.70;99.90;;;;;;5105417;28;20277;-56
2022/01/20 11:52:28;;;;;;;10.97;2.50;;;3.60;99.90;;;;;;5116207;27;20199;-55
2022/01/20 11:55:18;;;;;;;7.70;2.70;;;3.50;99.90;;;;;;5116151;27;20204;-55
2022/01/20 11:57:46;;;;;;;7.43;3.00;;;3.20;99.90;;;;;;5114720;27;20573;-55
2022/01/20 12:00:22;;;;;;;10.73;3.90;;;3.10;99.90;;;;;;5117733;27;20223;-55
2022/01/20 12:02:53;;;;;;;9.93;3.47;;;3.10;99.90;;;;;;5116275;27;20228;-55
2022/01/20 12:05:26;;;;;;;10.43;3.20;;;3.10;99.90;;;;;;5125010;27;20286;-54
2022/01/20 12:08:07;;;;;;;10.83;2.80;;;3.10;99.90;;;;;;5132850;27;20240;-55
2022/01/20 12:10:35;;;;;;;12.77;2.90;;;3.20;99.90;;;;;;5121819;27;20225;-55
2022/01/20 12:13:08;;;;;;;7.50;3.53;;;3.30;99.90;;;;;;5133798;27;20656;-55
2022/01/20 12:15:50;;;;;;;13.63;3.83;;;3.30;99.90;;;;;;5133956;27;20203;-54
2022/01/20 12:18:20;;;;;;;7.40;4.10;;;3.20;99.90;;;;;;5117252;27;20202;-56
2022/01/20 12:20:48;;;;;;;10.43;3.63;;;3.10;99.90;;;;;;5131518;27;20227;-55
2022/01/20 12:23:17;;;;;;;7.17;4.47;;;3.10;99.90;;;;;;5114214;27;20226;-55
2022/01/20 12:25:46;;;;;;;6.53;2.97;;;3.10;99.90;;;;;;5096710;28;20683;-55
2022/01/20 12:28:17;;;;;;;10.97;3.60;;;3.20;99.90;;;;;;5102016;28;20268;-55
2022/01/20 12:30:48;;;;;;;5.50;2.40;;;3.50;99.90;;;;;;5132096;27;20223;-55
2022/01/20 12:33:23;;;;;;;19.03;8.17;;;3.50;99.90;;;;;;5109610;27;20197;-54
2022/01/20 12:35:54;;;;;;;11.43;5.93;;;3.40;99.90;;;;;;5096599;28;20211;-56
2022/01/20 12:38:26;;;;;;;13.17;4.47;;;3.30;99.90;;;;;;5110004;28;20200;-55
2022/01/20 12:41:06;;;;;;;14.73;8.57;;;3.30;99.90;;;;;;5112920;28;20235;-54
2022/01/20 12:43:36;;;;;;;15.60;8.80;;;3.30;99.90;;;;;;5112912;28;20278;-55
2022/01/20 12:46:05;;;;;;;12.03;6.20;;;3.30;99.90;;;;;;5112814;28;20763;-55
2022/01/20 12:48:36;;;;;;;9.00;4.43;;;3.50;99.90;;;;;;5113289;28;20212;-55
2022/01/20 12:51:06;;;;;;;9.90;4.20;;;3.70;99.90;;;;;;5112691;28;20227;-55
2022/01/20 12:53:40;;;;;;;6.57;3.00;;;3.80;99.90;;;;;;5123994;27;20197;-55
2022/01/20 12:56:11;;;;;;;7.93;3.93;;;3.70;99.90;;;;;;5112926;28;20211;-54
2022/01/20 12:58:46;;;;;;;8.73;4.10;;;3.80;99.90;;;;;;5110927;28;20206;-55
2022/01/20 13:01:15;;;;;;;19.70;10.23;;;3.70;99.90;;;;;;5091810;28;20279;-55
2022/01/20 13:03:44;;;;;;;8.37;3.00;;;3.70;99.90;;;;;;5092183;28;20228;-55
2022/01/20 13:06:22;;;;;;;9.37;4.40;;;3.70;99.90;;;;;;5092625;28;20241;-55
2022/01/20 13:09:03;;;;;;;11.07;5.50;;;3.80;99.90;;;;;;5093631;28;20201;-54
2022/01/20 13:11:36;;;;;;;26.60;17.63;;;3.80;99.90;;;;;;5105622;27;20220;-55
2022/01/20 13:14:05;;;;;;;12.07;6.20;;;3.90;99.90;;;;;;5112252;27;20199;-55
2022/01/20 13:16:39;;;;;;;19.63;9.90;;;3.80;99.90;;;;;;5112004;28;20762;-55
2022/01/20 13:19:08;;;;;;;12.63;5.57;;;3.70;99.90;;;;;;5112435;28;20207;-54
2022/01/20 13:21:39;;;;;;;11.10;3.70;;;3.70;99.90;;;;;;5114968;27;20700;-55
2022/01/20 13:24:10;;;;;;;11.17;3.27;;;3.70;99.90;;;;;;5132672;27;20296;-56
2022/01/20 13:26:50;;;;;;;13.33;4.67;;;3.70;99.90;;;;;;5132043;27;20202;-53
2022/01/20 13:29:20;;;;;;;10.73;3.17;;;3.80;99.90;;;;;;5125334;27;20190;-55
2022/01/20 13:31:50;;;;;;;12.10;3.40;;;3.70;99.90;;;;;;5111638;28;20241;-56
2022/01/20 13:34:20;;;;;;;8.07;2.73;;;3.60;99.90;;;;;;5111995;28;20251;-56
2022/01/20 13:36:51;;;;;;;12.67;2.97;;;3.60;99.90;;;;;;5121618;27;20671;-54
2022/01/20 13:39:30;;;;;;;9.47;3.17;;;3.60;99.90;;;;;;5111931;28;20223;-56
2022/01/20 13:42:24;;;;;;;9.27;2.90;;;3.60;99.90;;;;;;5111698;28;20213;-56
2022/01/20 13:45:13;;;;;;;12.57;2.83;;;3.70;99.90;;;;;;5111735;28;20598;-55
2022/01/20 13:47:54;;;;;;;10.77;3.20;;;3.60;99.90;;;;;;5111948;28;20236;-55
2022/01/20 13:50:26;;;;;;;10.30;3.83;;;3.60;99.90;;;;;;5099275;28;20266;-53
2022/01/20 13:52:55;;;;;;;9.53;3.70;;;3.70;99.90;;;;;;5109367;27;20728;-56
2022/01/20 13:55:27;;;;;;;11.23;3.53;;;3.70;99.90;;;;;;5096069;28;20882;-54
2022/01/20 13:57:57;;;;;;;8.33;2.73;;;3.70;99.90;;;;;;5091253;28;20208;-54